sensor_id;sensor_type;location;lat;lon;timestamp;pressure;altitude;pressure_sealevel;temperature;humidity
8051;BME280;4068;42.158;24.732;2023-04-03T00:01:01;98958.69;;;10.39;75.76
8051;BME280;4068;42.158;24.732;2023-04-03T00:03:26;98945.47;;;10.18;77.07
8051;BME280;4068;42.158;24.732;2023-04-03T00:05:52;98954.41;;;10.17;77.01
8051;BME280;4068;42.158;24.732;2023-04-03T00:08:18;98972.41;;;10.13;77.03
8051;BME280;4068;42.158;24.732;2023-04-03T00:10:43;98968.34;;;10.09;78.57
8051;BME280;4068;42.158;24.732;2023-04-03T00:13:09;98975.75;;;10.25;75.84
8051;BME280;4068;42.158;24.732;2023-04-03T00:15:35;98974.09;;;10.24;75.26
8051;BME280;4068;42.158;24.732;2023-04-03T00:18:01;98976.88;;;10.23;75.66
8051;BME280;4068;42.158;24.732;2023-04-03T00:20:27;98976.56;;;10.16;75.92
8051;BME280;4068;42.158;24.732;2023-04-03T00:22:53;98976.00;;;10.12;76.38
8051;BME280;4068;42.158;24.732;2023-04-03T00:25:18;98953.06;;;9.92;76.32
8051;BME280;4068;42.158;24.732;2023-04-03T00:27:44;98978.34;;;10.06;76.97
8051;BME280;4068;42.158;24.732;2023-04-03T00:30:13;98978.34;;;10.06;76.50
8051;BME280;4068;42.158;24.732;2023-04-03T00:32:38;98945.94;;;9.82;77.25
8051;BME280;4068;42.158;24.732;2023-04-03T00:35:04;98980.25;;;9.94;76.69
8051;BME280;4068;42.158;24.732;2023-04-03T00:37:30;98980.53;;;9.91;76.64
8051;BME280;4068;42.158;24.732;2023-04-03T00:39:55;98963.66;;;9.92;76.67
8051;BME280;4068;42.158;24.732;2023-04-03T00:42:21;98966.06;;;9.95;76.49
8051;BME280;4068;42.158;24.732;2023-04-03T00:47:13;98971.88;;;9.89;76.82
8051;BME280;4068;42.158;24.732;2023-04-03T00:49:41;98967.19;;;9.71;77.61
8051;BME280;4068;42.158;24.732;2023-04-03T00:52:11;98981.78;;;9.87;78.24
8051;BME280;4068;42.158;24.732;2023-04-03T00:54:40;98971.44;;;9.83;77.37
8051;BME280;4068;42.158;24.732;2023-04-03T00:57:06;98947.19;;;9.57;78.06
8051;BME280;4068;42.158;24.732;2023-04-03T00:59:38;98983.53;;;9.76;78.41
8051;BME280;4068;42.158;24.732;2023-04-03T01:02:06;98967.28;;;9.60;79.13
8051;BME280;4068;42.158;24.732;2023-04-03T01:04:34;98980.25;;;9.63;79.16
8051;BME280;4068;42.158;24.732;2023-04-03T01:07:03;98980.19;;;9.53;79.26
8051;BME280;4068;42.158;24.732;2023-04-03T01:09:30;98957.38;;;9.31;79.92
8051;BME280;4068;42.158;24.732;2023-04-03T01:12:18;98975.69;;;9.44;79.95
8051;BME280;4068;42.158;24.732;2023-04-03T01:14:45;98970.00;;;9.48;80.16
8051;BME280;4068;42.158;24.732;2023-04-03T01:17:34;98962.78;;;9.50;79.63
8051;BME280;4068;42.158;24.732;2023-04-03T01:25:42;98975.03;;;9.52;80.31
8051;BME280;4068;42.158;24.732;2023-04-03T01:28:12;98974.41;;;9.59;80.16
8051;BME280;4068;42.158;24.732;2023-04-03T01:30:45;98976.81;;;9.72;79.27
8051;BME280;4068;42.158;24.732;2023-04-03T01:33:13;98982.13;;;9.72;79.51
8051;BME280;4068;42.158;24.732;2023-04-03T01:35:38;98955.72;;;9.61;79.39
8051;BME280;4068;42.158;24.732;2023-04-03T01:38:04;98976.56;;;9.75;79.02
8051;BME280;4068;42.158;24.732;2023-04-03T01:40:29;98977.97;;;9.79;78.70
8051;BME280;4068;42.158;24.732;2023-04-03T01:42:55;98966.78;;;9.76;78.72
8051;BME280;4068;42.158;24.732;2023-04-03T01:45:20;98974.34;;;9.80;78.18
8051;BME280;4068;42.158;24.732;2023-04-03T01:47:46;98970.13;;;9.68;78.52
8051;BME280;4068;42.158;24.732;2023-04-03T01:50:11;98973.25;;;9.62;78.72
8051;BME280;4068;42.158;24.732;2023-04-03T01:52:37;98951.00;;;9.43;79.03
8051;BME280;4068;42.158;24.732;2023-04-03T01:55:02;98982.06;;;9.62;79.70
8051;BME280;4068;42.158;24.732;2023-04-03T01:57:28;98987.75;;;9.58;79.86
8051;BME280;4068;42.158;24.732;2023-04-03T01:59:53;98993.28;;;9.55;80.08
8051;BME280;4068;42.158;24.732;2023-04-03T02:02:19;98990.22;;;9.49;80.33
8051;BME280;4068;42.158;24.732;2023-04-03T02:04:46;98974.66;;;9.35;80.47
8051;BME280;4068;42.158;24.732;2023-04-03T02:07:11;98959.50;;;9.37;79.32
8051;BME280;4068;42.158;24.732;2023-04-03T02:09:37;99000.53;;;9.53;79.48
8051;BME280;4068;42.158;24.732;2023-04-03T02:12:02;98997.75;;;9.54;79.35
8051;BME280;4068;42.158;24.732;2023-04-03T02:14:28;98991.09;;;9.60;78.38
8051;BME280;4068;42.158;24.732;2023-04-03T02:16:54;98979.81;;;9.58;77.81
8051;BME280;4068;42.158;24.732;2023-04-03T02:19:19;98962.41;;;9.34;78.66
8051;BME280;4068;42.158;24.732;2023-04-03T02:21:44;98956.22;;;9.24;79.04
8051;BME280;4068;42.158;24.732;2023-04-03T02:24:10;98998.66;;;9.43;79.62
8051;BME280;4068;42.158;24.732;2023-04-03T02:26:35;98971.69;;;9.28;79.26
8051;BME280;4068;42.158;24.732;2023-04-03T02:29:01;98989.56;;;9.36;79.42
8051;BME280;4068;42.158;24.732;2023-04-03T02:31:26;98989.94;;;9.31;79.37
8051;BME280;4068;42.158;24.732;2023-04-03T02:33:52;98988.53;;;9.27;79.37
8051;BME280;4068;42.158;24.732;2023-04-03T02:36:17;98987.22;;;9.22;79.61
8051;BME280;4068;42.158;24.732;2023-04-03T02:38:43;98976.97;;;9.07;80.11
8051;BME280;4068;42.158;24.732;2023-04-03T02:41:11;98976.75;;;8.99;81.03
8051;BME280;4068;42.158;24.732;2023-04-03T02:43:37;98996.69;;;9.03;81.76
8051;BME280;4068;42.158;24.732;2023-04-03T02:46:03;98977.06;;;8.85;82.52
8051;BME280;4068;42.158;24.732;2023-04-03T02:48:28;98989.31;;;8.86;82.63
8051;BME280;4068;42.158;24.732;2023-04-03T02:50:54;98947.38;;;8.60;82.93
8051;BME280;4068;42.158;24.732;2023-04-03T02:53:20;98986.59;;;8.76;84.38
8051;BME280;4068;42.158;24.732;2023-04-03T02:55:46;98966.47;;;8.52;85.21
8051;BME280;4068;42.158;24.732;2023-04-03T02:58:11;98964.47;;;8.44;85.27
8051;BME280;4068;42.158;24.732;2023-04-03T03:00:37;98977.78;;;8.43;85.28
8051;BME280;4068;42.158;24.732;2023-04-03T03:03:03;98971.19;;;8.37;86.19
8051;BME280;4068;42.158;24.732;2023-04-03T03:05:28;98977.22;;;8.28;86.93
8051;BME280;4068;42.158;24.732;2023-04-03T03:07:54;98976.72;;;8.23;88.26
8051;BME280;4068;42.158;24.732;2023-04-03T03:10:20;98949.72;;;7.97;90.10
8051;BME280;4068;42.158;24.732;2023-04-03T03:12:45;98968.69;;;8.24;94.02
8051;BME280;4068;42.158;24.732;2023-04-03T03:15:11;98937.66;;;8.38;96.40
8051;BME280;4068;42.158;24.732;2023-04-03T03:17:37;98960.03;;;8.77;95.30
8051;BME280;4068;42.158;24.732;2023-04-03T03:20:04;98966.75;;;8.81;88.25
8051;BME280;4068;42.158;24.732;2023-04-03T03:22:30;98948.75;;;8.75;90.35
8051;BME280;4068;42.158;24.732;2023-04-03T03:24:55;98963.41;;;8.79;89.83
8051;BME280;4068;42.158;24.732;2023-04-03T03:27:21;98933.91;;;8.63;89.08
8051;BME280;4068;42.158;24.732;2023-04-03T03:29:46;98954.25;;;8.84;86.62
8051;BME280;4068;42.158;24.732;2023-04-03T03:32:12;98955.53;;;9.10;87.91
8051;BME280;4068;42.158;24.732;2023-04-03T03:34:37;98930.72;;;9.02;87.27
8051;BME280;4068;42.158;24.732;2023-04-03T03:37:03;98949.88;;;9.36;82.94
8051;BME280;4068;42.158;24.732;2023-04-03T03:39:29;98940.78;;;9.29;84.45
8051;BME280;4068;42.158;24.732;2023-04-03T03:41:54;98955.94;;;9.27;81.98
8051;BME280;4068;42.158;24.732;2023-04-03T03:44:20;98957.94;;;9.13;82.85
8051;BME280;4068;42.158;24.732;2023-04-03T03:46:46;98926.38;;;8.79;82.70
8051;BME280;4068;42.158;24.732;2023-04-03T03:49:11;98946.13;;;8.75;82.95
8051;BME280;4068;42.158;24.732;2023-04-03T03:51:38;98929.59;;;8.39;83.73
8051;BME280;4068;42.158;24.732;2023-04-03T03:54:04;98953.91;;;8.44;85.01
8051;BME280;4068;42.158;24.732;2023-04-03T03:56:30;98974.44;;;8.41;85.21
8051;BME280;4068;42.158;24.732;2023-04-03T03:58:56;98969.75;;;8.33;86.26
8051;BME280;4068;42.158;24.732;2023-04-03T04:01:22;98953.22;;;8.20;86.95
8051;BME280;4068;42.158;24.732;2023-04-03T04:03:48;98968.06;;;8.21;87.79
8051;BME280;4068;42.158;24.732;2023-04-03T04:06:13;98969.41;;;8.15;88.83
8051;BME280;4068;42.158;24.732;2023-04-03T04:08:39;98975.66;;;8.14;89.18
8051;BME280;4068;42.158;24.732;2023-04-03T04:11:05;98975.19;;;8.09;89.72
8051;BME280;4068;42.158;24.732;2023-04-03T04:13:30;98991.38;;;8.16;91.69
8051;BME280;4068;42.158;24.732;2023-04-03T04:15:56;98992.47;;;8.13;91.59
8051;BME280;4068;42.158;24.732;2023-04-03T04:18:22;98999.78;;;8.21;90.80
8051;BME280;4068;42.158;24.732;2023-04-03T04:20:48;99002.91;;;8.26;91.03
8051;BME280;4068;42.158;24.732;2023-04-03T04:23:13;99005.66;;;8.36;91.19
8051;BME280;4068;42.158;24.732;2023-04-03T04:25:39;99008.78;;;8.41;90.53
8051;BME280;4068;42.158;24.732;2023-04-03T04:28:05;99016.34;;;8.45;90.51
8051;BME280;4068;42.158;24.732;2023-04-03T04:30:30;99018.03;;;8.46;90.42
8051;BME280;4068;42.158;24.732;2023-04-03T04:32:56;98990.75;;;8.35;90.43
8051;BME280;4068;42.158;24.732;2023-04-03T04:35:21;98986.19;;;8.37;89.36
8051;BME280;4068;42.158;24.732;2023-04-03T04:37:47;99018.97;;;8.68;88.98
8051;BME280;4068;42.158;24.732;2023-04-03T04:40:12;99018.44;;;8.74;88.17
8051;BME280;4068;42.158;24.732;2023-04-03T04:42:38;99011.94;;;8.78;87.09
8051;BME280;4068;42.158;24.732;2023-04-03T04:45:03;99000.88;;;8.85;86.73
8051;BME280;4068;42.158;24.732;2023-04-03T04:47:29;99014.84;;;9.08;85.96
8051;BME280;4068;42.158;24.732;2023-04-03T04:49:55;99008.28;;;9.23;85.53
8051;BME280;4068;42.158;24.732;2023-04-03T04:52:20;99020.81;;;9.42;83.94
8051;BME280;4068;42.158;24.732;2023-04-03T04:54:47;99018.03;;;9.65;82.65
8051;BME280;4068;42.158;24.732;2023-04-03T04:57:12;99023.19;;;9.88;80.82
8051;BME280;4068;42.158;24.732;2023-04-03T04:59:38;99028.81;;;10.04;79.18
8051;BME280;4068;42.158;24.732;2023-04-03T05:02:03;99009.19;;;10.07;78.11
8051;BME280;4068;42.158;24.732;2023-04-03T05:04:28;99036.84;;;10.24;76.09
8051;BME280;4068;42.158;24.732;2023-04-03T05:06:54;99041.09;;;10.36;75.36
8051;BME280;4068;42.158;24.732;2023-04-03T05:09:20;99033.72;;;10.40;74.54
8051;BME280;4068;42.158;24.732;2023-04-03T05:11:46;99037.81;;;10.53;73.18
8051;BME280;4068;42.158;24.732;2023-04-03T05:14:12;99037.41;;;10.58;72.95
8051;BME280;4068;42.158;24.732;2023-04-03T05:16:37;99029.31;;;10.60;71.40
8051;BME280;4068;42.158;24.732;2023-04-03T05:19:03;99022.91;;;10.62;71.65
8051;BME280;4068;42.158;24.732;2023-04-03T05:21:29;99040.38;;;10.75;71.75
8051;BME280;4068;42.158;24.732;2023-04-03T05:23:58;99017.59;;;10.62;70.99
8051;BME280;4068;42.158;24.732;2023-04-03T05:26:24;99056.84;;;10.78;72.07
8051;BME280;4068;42.158;24.732;2023-04-03T05:28:51;99058.41;;;10.91;71.65
8051;BME280;4068;42.158;24.732;2023-04-03T05:31:16;99049.88;;;10.97;70.94
8051;BME280;4068;42.158;24.732;2023-04-03T05:33:42;99063.75;;;11.10;69.96
8051;BME280;4068;42.158;24.732;2023-04-03T05:36:08;99065.53;;;11.10;70.13
8051;BME280;4068;42.158;24.732;2023-04-03T05:38:33;99022.25;;;11.09;70.05
8051;BME280;4068;42.158;24.732;2023-04-03T05:40:59;99043.75;;;11.45;67.85
8051;BME280;4068;42.158;24.732;2023-04-03T05:43:24;99061.50;;;11.54;67.36
8051;BME280;4068;42.158;24.732;2023-04-03T05:45:51;99051.03;;;11.53;66.90
8051;BME280;4068;42.158;24.732;2023-04-03T05:48:17;99055.59;;;11.61;66.62
8051;BME280;4068;42.158;24.732;2023-04-03T05:50:42;99070.81;;;11.78;65.38
8051;BME280;4068;42.158;24.732;2023-04-03T05:53:21;99062.28;;;11.84;65.85
8051;BME280;4068;42.158;24.732;2023-04-03T05:55:47;99068.41;;;12.14;65.03
8051;BME280;4068;42.158;24.732;2023-04-03T05:58:13;99070.47;;;12.20;63.92
8051;BME280;4068;42.158;24.732;2023-04-03T06:00:39;99068.81;;;12.09;62.83
8051;BME280;4068;42.158;24.732;2023-04-03T06:03:05;99062.19;;;12.23;62.86
8051;BME280;4068;42.158;24.732;2023-04-03T06:05:31;99043.50;;;12.05;62.54
8051;BME280;4068;42.158;24.732;2023-04-03T06:07:57;99043.09;;;12.38;62.43
8051;BME280;4068;42.158;24.732;2023-04-03T06:10:22;99073.38;;;12.83;60.90
8051;BME280;4068;42.158;24.732;2023-04-03T06:12:48;99069.19;;;12.80;59.88
8051;BME280;4068;42.158;24.732;2023-04-03T06:15:14;99065.00;;;12.77;60.55
8051;BME280;4068;42.158;24.732;2023-04-03T06:17:40;99049.00;;;12.59;59.50
8051;BME280;4068;42.158;24.732;2023-04-03T06:20:24;99082.22;;;13.01;59.25
8051;BME280;4068;42.158;24.732;2023-04-03T06:22:50;99084.88;;;13.19;58.79
8051;BME280;4068;42.158;24.732;2023-04-03T06:25:16;99080.56;;;13.18;58.63
8051;BME280;4068;42.158;24.732;2023-04-03T06:27:44;99049.22;;;12.94;58.80
8051;BME280;4068;42.158;24.732;2023-04-03T06:30:09;99069.84;;;13.10;59.23
8051;BME280;4068;42.158;24.732;2023-04-03T06:32:36;99038.34;;;13.23;58.06
8051;BME280;4068;42.158;24.732;2023-04-03T06:35:01;99066.22;;;13.73;57.09
8051;BME280;4068;42.158;24.732;2023-04-03T06:37:27;99065.66;;;13.88;55.96
8051;BME280;4068;42.158;24.732;2023-04-03T06:39:54;99065.91;;;13.76;55.61
8051;BME280;4068;42.158;24.732;2023-04-03T06:42:20;99073.81;;;13.42;58.51
8051;BME280;4068;42.158;24.732;2023-04-03T06:44:46;99080.13;;;13.41;57.98
8051;BME280;4068;42.158;24.732;2023-04-03T06:47:15;99092.47;;;13.86;57.66
8051;BME280;4068;42.158;24.732;2023-04-03T06:49:41;99092.72;;;14.27;55.06
8051;BME280;4068;42.158;24.732;2023-04-03T06:52:08;99094.28;;;14.64;54.17
8051;BME280;4068;42.158;24.732;2023-04-03T06:54:33;99095.69;;;14.93;51.97
8051;BME280;4068;42.158;24.732;2023-04-03T06:56:59;99075.00;;;14.87;52.05
8051;BME280;4068;42.158;24.732;2023-04-03T06:59:25;99088.88;;;14.91;51.84
8051;BME280;4068;42.158;24.732;2023-04-03T07:01:50;99091.97;;;14.70;53.74
8051;BME280;4068;42.158;24.732;2023-04-03T07:04:16;99089.16;;;14.79;52.55
8051;BME280;4068;42.158;24.732;2023-04-03T07:06:42;99097.84;;;14.81;53.57
8051;BME280;4068;42.158;24.732;2023-04-03T07:09:08;99093.78;;;15.28;53.02
8051;BME280;4068;42.158;24.732;2023-04-03T07:11:35;99095.47;;;15.54;50.81
8051;BME280;4068;42.158;24.732;2023-04-03T07:14:01;99091.13;;;15.78;50.79
8051;BME280;4068;42.158;24.732;2023-04-03T07:16:27;99096.47;;;15.86;50.72
8051;BME280;4068;42.158;24.732;2023-04-03T07:18:52;99073.59;;;15.67;50.39
8051;BME280;4068;42.158;24.732;2023-04-03T07:21:18;99086.28;;;15.98;50.63
8051;BME280;4068;42.158;24.732;2023-04-03T07:23:43;99095.97;;;16.07;50.09
8051;BME280;4068;42.158;24.732;2023-04-03T07:26:08;99080.41;;;16.11;50.31
8051;BME280;4068;42.158;24.732;2023-04-03T07:28:34;99083.59;;;16.06;49.80
8051;BME280;4068;42.158;24.732;2023-04-03T07:31:05;99080.59;;;16.01;50.35
8051;BME280;4068;42.158;24.732;2023-04-03T07:33:32;99081.44;;;16.01;50.96
8051;BME280;4068;42.158;24.732;2023-04-03T07:35:59;99076.91;;;16.10;49.26
8051;BME280;4068;42.158;24.732;2023-04-03T07:38:25;99081.06;;;16.13;49.37
8051;BME280;4068;42.158;24.732;2023-04-03T07:40:51;99076.41;;;16.07;49.07
8051;BME280;4068;42.158;24.732;2023-04-03T07:43:19;99076.78;;;15.95;49.93
8051;BME280;4068;42.158;24.732;2023-04-03T07:45:46;99046.19;;;15.48;50.59
8051;BME280;4068;42.158;24.732;2023-04-03T07:48:15;99043.34;;;15.42;51.35
8051;BME280;4068;42.158;24.732;2023-04-03T07:50:41;99057.75;;;15.82;51.19
8051;BME280;4068;42.158;24.732;2023-04-03T07:53:06;99064.66;;;16.24;49.45
8051;BME280;4068;42.158;24.732;2023-04-03T07:55:33;99072.16;;;16.77;47.69
8051;BME280;4068;42.158;24.732;2023-04-03T07:57:59;99064.56;;;17.20;46.14
8051;BME280;4068;42.158;24.732;2023-04-03T08:00:24;99060.50;;;17.47;45.16
8051;BME280;4068;42.158;24.732;2023-04-03T08:02:50;99055.13;;;17.47;44.59
8051;BME280;4068;42.158;24.732;2023-04-03T08:05:21;99053.94;;;17.50;44.58
8051;BME280;4068;42.158;24.732;2023-04-03T08:07:46;99053.69;;;17.45;44.82
8051;BME280;4068;42.158;24.732;2023-04-03T08:10:13;99054.72;;;17.35;44.31
8051;BME280;4068;42.158;24.732;2023-04-03T08:12:39;99048.44;;;17.05;45.09
8051;BME280;4068;42.158;24.732;2023-04-03T08:15:05;99040.34;;;17.36;44.21
8051;BME280;4068;42.158;24.732;2023-04-03T08:17:32;99047.69;;;17.34;42.76
8051;BME280;4068;42.158;24.732;2023-04-03T08:19:58;99044.09;;;17.65;42.65
8051;BME280;4068;42.158;24.732;2023-04-03T08:22:23;99032.47;;;17.73;43.02
8051;BME280;4068;42.158;24.732;2023-04-03T08:24:49;99026.50;;;17.86;42.71
8051;BME280;4068;42.158;24.732;2023-04-03T08:27:14;99025.78;;;18.22;43.00
8051;BME280;4068;42.158;24.732;2023-04-03T08:29:40;99027.66;;;18.21;42.08
8051;BME280;4068;42.158;24.732;2023-04-03T08:32:05;99030.84;;;18.46;41.56
8051;BME280;4068;42.158;24.732;2023-04-03T08:34:31;99018.00;;;18.42;41.00
8051;BME280;4068;42.158;24.732;2023-04-03T08:37:02;98996.72;;;18.25;40.66
8051;BME280;4068;42.158;24.732;2023-04-03T08:39:31;99017.47;;;18.32;41.26
8051;BME280;4068;42.158;24.732;2023-04-03T08:41:58;99020.00;;;18.55;40.71
8051;BME280;4068;42.158;24.732;2023-04-03T08:48:05;99004.63;;;17.97;42.40
8051;BME280;4068;42.158;24.732;2023-04-03T08:50:43;98998.25;;;17.75;42.85
8051;BME280;4068;42.158;24.732;2023-04-03T08:53:32;98998.81;;;17.32;43.99
8051;BME280;4068;42.158;24.732;2023-04-03T08:56:03;98986.44;;;17.31;44.25
8051;BME280;4068;42.158;24.732;2023-04-03T08:58:45;98989.03;;;17.39;44.23
8051;BME280;4068;42.158;24.732;2023-04-03T09:01:20;98991.47;;;17.49;44.00
8051;BME280;4068;42.158;24.732;2023-04-03T09:03:46;98999.03;;;17.46;44.24
8051;BME280;4068;42.158;24.732;2023-04-03T09:06:25;98993.03;;;17.43;44.74
8051;BME280;4068;42.158;24.732;2023-04-03T09:09:39;98998.41;;;17.43;44.87
8051;BME280;4068;42.158;24.732;2023-04-03T09:12:23;98999.44;;;17.57;44.27
8051;BME280;4068;42.158;24.732;2023-04-03T09:22:47;98986.13;;;16.80;47.17
8051;BME280;4068;42.158;24.732;2023-04-03T09:25:18;98982.09;;;16.52;48.51
8051;BME280;4068;42.158;24.732;2023-04-03T09:27:45;98970.78;;;16.42;48.42
8051;BME280;4068;42.158;24.732;2023-04-03T09:30:22;98986.91;;;16.26;49.85
8051;BME280;4068;42.158;24.732;2023-04-03T09:32:52;98979.00;;;16.41;50.01
8051;BME280;4068;42.158;24.732;2023-04-03T09:35:29;98982.53;;;16.33;50.55
8051;BME280;4068;42.158;24.732;2023-04-03T09:38:01;98975.25;;;16.10;51.19
8051;BME280;4068;42.158;24.732;2023-04-03T09:42:58;98979.19;;;15.91;49.97
8051;BME280;4068;42.158;24.732;2023-04-03T09:45:32;98969.34;;;15.83;50.03
8051;BME280;4068;42.158;24.732;2023-04-03T09:50:30;98961.97;;;15.94;49.80
8051;BME280;4068;42.158;24.732;2023-04-03T09:52:56;98960.66;;;15.81;50.78
8051;BME280;4068;42.158;24.732;2023-04-03T09:55:24;98922.47;;;15.48;51.36
8051;BME280;4068;42.158;24.732;2023-04-03T09:58:04;98945.81;;;15.62;51.62
8051;BME280;4068;42.158;24.732;2023-04-03T10:00:34;98954.31;;;15.82;51.54
8051;BME280;4068;42.158;24.732;2023-04-03T10:03:00;98969.97;;;16.02;54.55
8051;BME280;4068;42.158;24.732;2023-04-03T10:05:32;98970.44;;;16.05;53.60
8051;BME280;4068;42.158;24.732;2023-04-03T10:10:36;98965.16;;;15.89;55.54
8051;BME280;4068;42.158;24.732;2023-04-03T10:15:36;98942.81;;;15.65;57.75
8051;BME280;4068;42.158;24.732;2023-04-03T10:18:22;98949.31;;;15.54;60.41
8051;BME280;4068;42.158;24.732;2023-04-03T10:20:53;98948.84;;;15.34;62.75
8051;BME280;4068;42.158;24.732;2023-04-03T10:23:30;98942.03;;;15.07;60.27
8051;BME280;4068;42.158;24.732;2023-04-03T10:32:15;98956.22;;;14.83;63.04
8051;BME280;4068;42.158;24.732;2023-04-03T10:34:46;98956.22;;;15.08;63.52
8051;BME280;4068;42.158;24.732;2023-04-03T10:37:25;98954.53;;;15.40;63.59
8051;BME280;4068;42.158;24.732;2023-04-03T10:42:28;98963.31;;;15.90;61.78
8051;BME280;4068;42.158;24.732;2023-04-03T10:54:00;98975.56;;;16.24;63.88
8051;BME280;4068;42.158;24.732;2023-04-03T11:01:56;98978.19;;;15.67;69.34
8051;BME280;4068;42.158;24.732;2023-04-03T11:04:26;98982.06;;;15.65;67.70
8051;BME280;4068;42.158;24.732;2023-04-03T11:07:08;98980.91;;;15.43;70.00
8051;BME280;4068;42.158;24.732;2023-04-03T11:09:38;98990.59;;;15.27;71.74
8051;BME280;4068;42.158;24.732;2023-04-03T11:12:36;98982.78;;;15.09;74.13
8051;BME280;4068;42.158;24.732;2023-04-03T11:15:11;98978.59;;;15.07;75.06
8051;BME280;4068;42.158;24.732;2023-04-03T11:17:41;98981.25;;;15.07;77.00
8051;BME280;4068;42.158;24.732;2023-04-03T11:20:26;98982.22;;;14.89;77.41
8051;BME280;4068;42.158;24.732;2023-04-03T11:25:32;98971.56;;;14.81;83.55
8051;BME280;4068;42.158;24.732;2023-04-03T11:28:00;98962.53;;;14.65;86.41
8051;BME280;4068;42.158;24.732;2023-04-03T11:38:35;98961.38;;;14.93;89.99
8051;BME280;4068;42.158;24.732;2023-04-03T11:41:06;98964.56;;;15.05;89.19
8051;BME280;4068;42.158;24.732;2023-04-03T11:43:33;98949.88;;;15.09;87.99
8051;BME280;4068;42.158;24.732;2023-04-03T11:46:00;98959.22;;;15.05;90.72
8051;BME280;4068;42.158;24.732;2023-04-03T11:53:37;98915.50;;;14.81;90.21
8051;BME280;4068;42.158;24.732;2023-04-03T12:01:51;98937.19;;;14.78;93.70
8051;BME280;4068;42.158;24.732;2023-04-03T12:04:19;98949.34;;;14.80;90.11
8051;BME280;4068;42.158;24.732;2023-04-03T12:11:49;98933.91;;;14.33;95.09
8051;BME280;4068;42.158;24.732;2023-04-03T12:14:15;98926.38;;;14.20;96.71
8051;BME280;4068;42.158;24.732;2023-04-03T12:16:43;98923.53;;;14.22;96.51
8051;BME280;4068;42.158;24.732;2023-04-03T12:19:38;98924.84;;;14.18;97.07
8051;BME280;4068;42.158;24.732;2023-04-03T12:22:16;98924.53;;;14.21;96.74
8051;BME280;4068;42.158;24.732;2023-04-03T12:24:46;98927.88;;;14.23;97.99
8051;BME280;4068;42.158;24.732;2023-04-03T12:27:34;98889.97;;;13.94;99.60
8051;BME280;4068;42.158;24.732;2023-04-03T12:48:58;98897.22;;;13.41;100.00
8051;BME280;4068;42.158;24.732;2023-04-03T12:51:39;98893.63;;;13.33;100.00
8051;BME280;4068;42.158;24.732;2023-04-03T12:54:40;98876.44;;;13.01;100.00
8051;BME280;4068;42.158;24.732;2023-04-03T12:57:17;98889.59;;;13.02;100.00
8051;BME280;4068;42.158;24.732;2023-04-03T12:59:43;98883.50;;;13.10;100.00
8051;BME280;4068;42.158;24.732;2023-04-03T13:02:25;98891.94;;;13.05;100.00
8051;BME280;4068;42.158;24.732;2023-04-03T13:04:53;98887.16;;;13.09;100.00
8051;BME280;4068;42.158;24.732;2023-04-03T13:07:29;98887.97;;;13.09;100.00
8051;BME280;4068;42.158;24.732;2023-04-03T13:10:03;98884.72;;;12.98;100.00
8051;BME280;4068;42.158;24.732;2023-04-03T13:12:28;98884.56;;;12.99;100.00
8051;BME280;4068;42.158;24.732;2023-04-03T13:14:59;98882.84;;;12.90;100.00
8051;BME280;4068;42.158;24.732;2023-04-03T13:17:26;98867.81;;;12.63;100.00
8051;BME280;4068;42.158;24.732;2023-04-03T13:19:53;98855.59;;;12.52;100.00
8051;BME280;4068;42.158;24.732;2023-04-03T13:22:28;98865.25;;;12.53;100.00
8051;BME280;4068;42.158;24.732;2023-04-03T13:27:41;98863.59;;;12.52;100.00
8051;BME280;4068;42.158;24.732;2023-04-03T13:30:21;98858.66;;;12.57;100.00
8051;BME280;4068;42.158;24.732;2023-04-03T13:32:48;98850.06;;;12.45;100.00
8051;BME280;4068;42.158;24.732;2023-04-03T13:35:28;98858.19;;;12.43;100.00
8051;BME280;4068;42.158;24.732;2023-04-03T13:37:57;98867.13;;;12.42;100.00
8051;BME280;4068;42.158;24.732;2023-04-03T13:40:23;98856.72;;;12.31;100.00
8051;BME280;4068;42.158;24.732;2023-04-03T13:42:59;98848.47;;;12.34;100.00
8051;BME280;4068;42.158;24.732;2023-04-03T13:45:27;98847.16;;;12.38;100.00
8051;BME280;4068;42.158;24.732;2023-04-03T13:48:17;98837.72;;;12.44;100.00
8051;BME280;4068;42.158;24.732;2023-04-03T13:51:04;98829.47;;;12.29;100.00
8051;BME280;4068;42.158;24.732;2023-04-03T13:53:31;98820.72;;;12.37;100.00
8051;BME280;4068;42.158;24.732;2023-04-03T13:58:30;98803.44;;;12.33;100.00
8051;BME280;4068;42.158;24.732;2023-04-03T14:01:17;98807.81;;;12.42;100.00
8051;BME280;4068;42.158;24.732;2023-04-03T14:03:56;98808.53;;;12.26;100.00
8051;BME280;4068;42.158;24.732;2023-04-03T14:06:22;98796.91;;;12.27;100.00
8051;BME280;4068;42.158;24.732;2023-04-03T14:08:48;98786.28;;;12.27;100.00
8051;BME280;4068;42.158;24.732;2023-04-03T14:11:18;98772.44;;;12.05;100.00
8051;BME280;4068;42.158;24.732;2023-04-03T14:13:45;98786.78;;;12.13;100.00
8051;BME280;4068;42.158;24.732;2023-04-03T14:16:23;98789.16;;;12.16;100.00
8051;BME280;4068;42.158;24.732;2023-04-03T14:18:51;98791.50;;;12.19;100.00
8051;BME280;4068;42.158;24.732;2023-04-03T14:21:19;98795.69;;;12.21;100.00
8051;BME280;4068;42.158;24.732;2023-04-03T14:23:45;98758.88;;;12.08;100.00
8051;BME280;4068;42.158;24.732;2023-04-03T14:26:17;98780.41;;;12.23;100.00
8051;BME280;4068;42.158;24.732;2023-04-03T14:28:44;98788.53;;;12.22;100.00
8051;BME280;4068;42.158;24.732;2023-04-03T14:31:11;98787.63;;;12.13;100.00
8051;BME280;4068;42.158;24.732;2023-04-03T14:33:37;98771.31;;;12.08;100.00
8051;BME280;4068;42.158;24.732;2023-04-03T14:36:30;98793.94;;;12.12;100.00
8051;BME280;4068;42.158;24.732;2023-04-03T14:38:59;98775.63;;;12.09;100.00
8051;BME280;4068;42.158;24.732;2023-04-03T14:41:26;98788.00;;;12.00;100.00
8051;BME280;4068;42.158;24.732;2023-04-03T14:43:52;98758.59;;;11.84;100.00
8051;BME280;4068;42.158;24.732;2023-04-03T14:46:20;98779.59;;;12.05;100.00
8051;BME280;4068;42.158;24.732;2023-04-03T14:48:47;98779.28;;;12.08;100.00
8051;BME280;4068;42.158;24.732;2023-04-03T14:51:14;98767.13;;;12.05;100.00
8051;BME280;4068;42.158;24.732;2023-04-03T14:53:42;98778.44;;;12.07;100.00
8051;BME280;4068;42.158;24.732;2023-04-03T14:56:19;98768.03;;;11.96;100.00
8051;BME280;4068;42.158;24.732;2023-04-03T14:58:48;98775.25;;;12.04;100.00
8051;BME280;4068;42.158;24.732;2023-04-03T15:01:16;98769.63;;;12.07;100.00
8051;BME280;4068;42.158;24.732;2023-04-03T15:03:41;98763.47;;;12.06;100.00